Time;durP1;ratioP1;P1;durP2;ratioP2;P2;SDS_P1;SDS_P2;PMS_P1;PMS_P2;Temp;Humidity;BMP_temperature;BMP_pressure;BME280_temperature;BME280_humidity;BME280_pressure;Samples;Min_cycle;Max_cycle;Signal;HPM_P1;HPM_P2
2022/02/05 00:01:42;;;;;;;;;;;1.10;77.80;;;;;;5028227;28;83895;-44
2022/02/05 00:04:05;;;;;;;;;;;1.10;77.80;;;;;;5027320;28;84136;-44
2022/02/05 00:06:35;;;;;;;;;;;1.10;77.80;;;;;;5030917;28;81851;-43
2022/02/05 00:09:15;;;;;;;;;;;1.10;77.80;;;;;;5028145;28;83805;-44
2022/02/05 00:38:37;;;;;;;;;;;1.10;77.90;;;;;;5027415;28;82192;-45
2022/02/05 00:41:14;;;;;;;;;;;1.10;78.00;;;;;;5028075;28;81827;-44
2022/02/05 00:43:46;;;;;;;;;;;1.10;77.90;;;;;;5026546;28;83986;-46
2022/02/05 00:46:13;;;;;;;;;;;1.10;77.90;;;;;;5027259;28;84662;-45
2022/02/05 00:48:39;;;;;;;;;;;1.10;77.90;;;;;;5027545;28;82117;-43
2022/02/05 00:51:15;;;;;;;;;;;1.10;77.80;;;;;;5030182;28;84642;-44
2022/02/05 00:53:43;;;;;;;;;;;1.10;77.90;;;;;;5027026;28;82045;-45
2022/02/05 00:58:38;;;;;;;;;;;1.00;77.80;;;;;;5027271;28;82866;-43
2022/02/05 01:01:04;;;;;;;;;;;1.00;77.80;;;;;;5027739;28;81299;-43
2022/02/05 01:03:30;;;;;;;;;;;1.00;77.90;;;;;;5026810;28;83347;-49
2022/02/05 01:05:55;;;;;;;;;;;1.00;77.90;;;;;;5027258;28;84080;-44
2022/02/05 01:08:23;;;;;;;;;;;1.00;77.80;;;;;;5026611;28;83032;-44
2022/02/05 01:10:49;;;;;;;;;;;1.00;77.80;;;;;;5027121;28;83679;-44
2022/02/05 01:13:14;;;;;;;;;;;1.00;77.80;;;;;;5029913;28;82408;-43
2022/02/05 01:15:48;;;;;;;;;;;1.00;77.80;;;;;;5027155;28;84121;-43
2022/02/05 01:18:16;;;;;;;;;;;1.10;77.80;;;;;;5026882;28;84528;-44
2022/02/05 01:23:13;;;;;;;;;;;1.00;77.80;;;;;;5027124;28;81994;-45
2022/02/05 01:25:45;;;;;;;;;;;1.00;77.70;;;;;;5027328;28;83610;-43
2022/02/05 01:28:22;;;;;;;;;;;1.00;77.80;;;;;;5026878;28;81816;-45
2022/02/05 01:30:52;;;;;;;;;;;1.00;77.70;;;;;;5027016;28;83813;-44
2022/02/05 01:57:19;;;;;;;;;;;0.90;77.70;;;;;;5026525;28;81829;-42
2022/02/05 02:04:47;;;;;;;;;;;0.90;77.70;;;;;;5027788;28;83324;-44
2022/02/05 02:05:35;;;;;;;;;;;0.90;77.60;;;;;;5027409;28;81844;-44
2022/02/05 02:16:29;;;;;;;;;;;0.90;77.70;;;;;;5029906;28;82947;-44
2022/02/05 02:19:11;;;;;;;;;;;0.90;77.70;;;;;;5030093;28;83233;-44
2022/02/05 02:22:03;;;;;;;;;;;0.90;77.60;;;;;;5029893;28;82312;-43
2022/02/05 02:24:41;;;;;;;;;;;0.80;77.60;;;;;;5032162;28;83387;-44
2022/02/05 02:30:00;;;;;;;;;;;0.80;77.70;;;;;;5029786;28;83027;-43
2022/02/05 02:32:26;;;;;;;;;;;0.80;77.70;;;;;;5029774;28;82115;-47
2022/02/05 02:34:57;;;;;;;;;;;0.80;77.70;;;;;;5029614;28;83954;-43
2022/02/05 02:37:31;;;;;;;;;;;0.80;77.80;;;;;;5029296;28;84421;-43
2022/02/05 02:42:25;;;;;;;;;;;0.80;77.90;;;;;;5029369;28;81939;-45
2022/02/05 02:44:51;;;;;;;;;;;0.80;77.80;;;;;;5032658;28;83859;-43
2022/02/05 02:47:16;;;;;;;;;;;0.70;77.80;;;;;;5029397;28;83273;-44
2022/02/05 02:57:39;;;;;;;;;;;0.70;77.90;;;;;;5028049;28;81860;-43
2022/02/05 03:00:10;;;;;;;;;;;0.70;77.60;;;;;;5029330;28;82112;-42
2022/02/05 03:02:36;;;;;;;;;;;0.60;77.90;;;;;;5029082;28;83624;-43
2022/02/05 03:05:01;;;;;;;;;;;0.70;78.00;;;;;;5028942;28;84052;-44
2022/02/05 03:07:27;;;;;;;;;;;0.70;78.00;;;;;;5031714;28;82086;-43
2022/02/05 03:09:54;;;;;;;;;;;0.70;78.00;;;;;;5029621;28;83740;-44
2022/02/05 03:12:21;;;;;;;;;;;0.70;77.90;;;;;;5028860;28;81830;-44
2022/02/05 03:14:47;;;;;;;;;;;0.60;77.90;;;;;;5028897;28;83854;-43
2022/02/05 03:17:17;;;;;;;;;;;0.60;77.90;;;;;;5027421;28;85147;-43
2022/02/05 03:19:44;;;;;;;;;;;0.60;78.00;;;;;;5029342;28;81988;-45
2022/02/05 03:22:10;;;;;;;;;;;0.60;78.60;;;;;;5028862;28;83861;-43
2022/02/05 03:24:35;;;;;;;;;;;0.60;78.00;;;;;;5028511;28;84276;-44
2022/02/05 03:27:01;;;;;;;;;;;0.60;77.90;;;;;;5028743;28;81992;-43
2022/02/05 03:29:26;;;;;;;;;;;0.60;78.00;;;;;;5031278;28;83989;-43
2022/02/05 03:31:52;;;;;;;;;;;0.60;78.00;;;;;;5028444;28;82150;-45
2022/02/05 03:34:17;;;;;;;;;;;0.60;78.00;;;;;;5029367;28;83696;-43
2022/02/05 03:36:43;;;;;;;;;;;0.60;78.00;;;;;;5028502;28;84556;-43
2022/02/05 03:39:09;;;;;;;;;;;0.60;77.90;;;;;;5028976;28;82038;-44
2022/02/05 03:41:34;;;;;;;;;;;0.60;77.90;;;;;;5028013;28;83707;-43
2022/02/05 03:44:00;;;;;;;;;;;0.60;77.90;;;;;;5027565;28;84826;-42
2022/02/05 03:46:26;;;;;;;;;;;0.60;77.70;;;;;;5028337;28;82154;-44
2022/02/05 03:48:51;;;;;;;;;;;0.60;77.80;;;;;;5028551;28;83762;-45
2022/02/05 03:51:17;;;;;;;;;;;0.60;77.90;;;;;;5031162;28;83880;-44
2022/02/05 03:53:42;;;;;;;;;;;0.50;77.80;;;;;;5028350;28;82870;-44
2022/02/05 03:56:08;;;;;;;;;;;0.60;77.80;;;;;;5028243;28;84438;-43
2022/02/05 03:58:34;;;;;;;;;;;0.50;77.60;;;;;;5028803;28;81105;-43
2022/02/05 04:00:59;;;;;;;;;;;0.60;77.80;;;;;;5028058;28;83030;-42
2022/02/05 04:03:25;;;;;;;;;;;0.50;77.70;;;;;;5028225;28;83198;-43
2022/02/05 04:05:50;;;;;;;;;;;0.60;77.70;;;;;;5027558;28;82794;-43
2022/02/05 04:08:17;;;;;;;;;;;0.50;78.20;;;;;;5028032;28;84823;-44
2022/02/05 04:10:59;;;;;;;;;;;0.50;77.60;;;;;;5027768;28;83534;-44
2022/02/05 04:16:21;;;;;;;;;;;0.50;77.60;;;;;;5025495;28;82234;-43
2022/02/05 04:18:47;;;;;;;;;;;0.50;77.70;;;;;;5028156;28;81809;-42
2022/02/05 04:21:13;;;;;;;;;;;0.50;77.60;;;;;;5027950;28;84174;-42
2022/02/05 04:23:39;;;;;;;;;;;0.50;77.60;;;;;;5028123;28;83871;-42
2022/02/05 04:26:05;;;;;;;;;;;0.50;77.70;;;;;;5027806;28;82056;-42
2022/02/05 04:28:31;;;;;;;;;;;0.40;77.70;;;;;;5026969;28;84179;-42
2022/02/05 04:30:56;;;;;;;;;;;0.50;77.70;;;;;;5026889;28;85439;-42
2022/02/05 04:33:22;;;;;;;;;;;0.40;77.70;;;;;;5027786;28;81866;-42
2022/02/05 04:35:48;;;;;;;;;;;0.50;77.60;;;;;;5030300;28;83558;-42
2022/02/05 04:38:14;;;;;;;;;;;0.40;77.70;;;;;;5027903;28;81977;-42
2022/02/05 04:40:50;;;;;;;;;;;0.40;77.60;;;;;;5027622;28;82812;-42
2022/02/05 05:05:21;;;;;;;;;;;0.40;77.40;;;;;;5027327;28;82990;-43
2022/02/05 05:20:24;;;;;;;;;;;0.30;77.60;;;;;;5029533;28;82244;-46
2022/02/05 05:22:50;;;;;;;;;;;0.30;77.50;;;;;;5026265;28;83781;-43
2022/02/05 05:25:17;;;;;;;;;;;0.30;77.40;;;;;;5026777;28;84502;-42
2022/02/05 05:27:42;;;;;;;;;;;0.30;77.30;;;;;;5026915;28;81872;-43
2022/02/05 05:30:08;;;;;;;;;;;0.30;77.30;;;;;;5026959;28;83996;-43
2022/02/05 05:32:34;;;;;;;;;;;0.30;77.30;;;;;;5026778;28;84516;-43
2022/02/05 05:34:59;;;;;;;;;;;0.30;77.30;;;;;;5026878;28;82060;-42
2022/02/05 05:37:25;;;;;;;;;;;0.30;77.20;;;;;;5026829;28;83953;-43
2022/02/05 05:39:50;;;;;;;;;;;0.20;77.20;;;;;;5027094;28;81780;-42
2022/02/05 05:42:22;;;;;;;;;;;0.20;77.20;;;;;;5029171;28;82084;-43
2022/02/05 05:52:20;;;;;;;;;;;0.20;77.20;;;;;;5026465;28;82854;-44
2022/02/05 05:54:45;;;;;;;;;;;0.20;77.20;;;;;;5026451;28;82059;-43
2022/02/05 05:57:11;;;;;;;;;;;0.20;77.20;;;;;;5026301;28;83925;-43
2022/02/05 05:59:40;;;;;;;;;;;0.20;77.20;;;;;;5026361;28;84758;-43
2022/02/05 06:02:06;;;;;;;;;;;0.20;77.20;;;;;;5026404;28;81970;-43
2022/02/05 06:04:31;;;;;;;;;;;0.20;77.10;;;;;;5029432;28;81434;-43
2022/02/05 06:06:57;;;;;;;;;;;0.10;77.10;;;;;;5026407;28;81997;-43
2022/02/05 06:09:22;;;;;;;;;;;0.20;77.20;;;;;;5026422;28;83752;-43
2022/02/05 06:11:49;;;;;;;;;;;0.20;77.20;;;;;;5025492;28;85244;-45
2022/02/05 06:14:18;;;;;;;;;;;0.20;77.20;;;;;;5026468;28;82143;-43
2022/02/05 06:16:47;;;;;;;;;;;0.20;77.10;;;;;;5026297;28;84079;-43
2022/02/05 06:19:14;;;;;;;;;;;0.20;77.10;;;;;;5026056;28;84379;-43
2022/02/05 06:21:40;;;;;;;;;;;0.10;77.00;;;;;;5025941;28;82089;-43
2022/02/05 06:24:05;;;;;;;;;;;0.10;77.10;;;;;;5025809;28;84052;-44
2022/02/05 06:26:31;;;;;;;;;;;0.10;77.00;;;;;;5028715;28;84810;-43
2022/02/05 06:28:56;;;;;;;;;;;0.20;77.00;;;;;;5026506;28;84005;-43
2022/02/05 06:31:22;;;;;;;;;;;0.10;77.00;;;;;;5025804;28;83728;-44
2022/02/05 06:33:48;;;;;;;;;;;0.20;76.90;;;;;;5025635;28;82090;-43
2022/02/05 06:36:14;;;;;;;;;;;0.20;76.90;;;;;;5025325;28;83599;-44
2022/02/05 06:38:39;;;;;;;;;;;0.10;76.90;;;;;;5025898;28;84514;-44
2022/02/05 06:41:05;;;;;;;;;;;0.10;77.00;;;;;;5025845;28;82040;-44
2022/02/05 06:43:30;;;;;;;;;;;0.10;76.90;;;;;;5025351;28;83427;-43
2022/02/05 06:45:56;;;;;;;;;;;0.10;76.90;;;;;;5025794;28;84807;-44
2022/02/05 06:48:21;;;;;;;;;;;0.10;76.80;;;;;;5028620;28;81923;-44
2022/02/05 06:50:47;;;;;;;;;;;0.10;76.90;;;;;;5025154;28;85226;-44
2022/02/05 06:53:12;;;;;;;;;;;0.10;76.80;;;;;;5029677;28;81393;-43
2022/02/05 06:55:38;;;;;;;;;;;0.10;76.80;;;;;;5029447;28;83206;-45
2022/02/05 06:58:03;;;;;;;;;;;0.10;76.90;;;;;;5029126;28;84661;-44
2022/02/05 07:00:29;;;;;;;;;;;0.10;76.90;;;;;;5028549;28;83049;-44
2022/02/05 07:02:54;;;;;;;;;;;0.10;76.90;;;;;;5029088;28;84855;-45
2022/02/05 07:05:20;;;;;;;;;;;0.10;76.80;;;;;;5029200;28;83749;-44
2022/02/05 07:07:45;;;;;;;;;;;0.10;76.90;;;;;;5031636;28;81985;-43
2022/02/05 07:10:11;;;;;;;;;;;0.10;76.90;;;;;;5029232;28;82848;-43
2022/02/05 07:12:52;;;;;;;;;;;0.10;76.90;;;;;;5028941;28;82040;-43
2022/02/05 07:15:23;;;;;;;;;;;0.00;76.80;;;;;;5029177;28;84129;-44
2022/02/05 07:18:11;;;;;;;;;;;0.10;76.80;;;;;;5029380;28;83771;-45
2022/02/05 07:20:52;;;;;;;;;;;0.10;76.60;;;;;;5028944;28;81802;-44
2022/02/05 07:31:19;;;;;;;;;;;0.10;76.60;;;;;;5031631;28;81937;-45
2022/02/05 07:33:44;;;;;;;;;;;0.10;76.80;;;;;;5028813;28;82172;-43
2022/02/05 07:36:11;;;;;;;;;;;0.10;76.70;;;;;;5028550;28;83658;-43
2022/02/05 07:38:37;;;;;;;;;;;0.00;76.80;;;;;;5028361;28;83693;-43
2022/02/05 07:41:03;;;;;;;;;;;0.00;76.80;;;;;;5028556;28;82151;-44
2022/02/05 07:43:29;;;;;;;;;;;0.00;76.80;;;;;;5028389;28;83821;-44
2022/02/05 07:45:55;;;;;;;;;;;0.10;76.70;;;;;;5028169;28;83992;-44
2022/02/05 07:48:21;;;;;;;;;;;0.10;76.80;;;;;;5028309;28;82080;-45
2022/02/05 07:50:46;;;;;;;;;;;0.10;76.70;;;;;;5027971;28;83811;-43
2022/02/05 07:53:12;;;;;;;;;;;0.10;76.70;;;;;;5030653;28;84355;-44
2022/02/05 07:55:37;;;;;;;;;;;0.10;76.90;;;;;;5028374;28;83967;-44
2022/02/05 07:58:03;;;;;;;;;;;0.10;76.90;;;;;;5028384;28;83170;-43
2022/02/05 08:00:28;;;;;;;;;;;0.10;76.70;;;;;;5026924;28;82084;-44
2022/02/05 08:02:57;;;;;;;;;;;0.10;76.80;;;;;;5028222;28;84244;-45
2022/02/05 08:05:23;;;;;;;;;;;0.10;76.90;;;;;;5027909;28;84443;-43
2022/02/05 08:07:49;;;;;;;;;;;0.10;76.90;;;;;;5028469;28;81387;-43
2022/02/05 08:10:16;;;;;;;;;;;0.10;76.90;;;;;;5028083;28;83057;-45
2022/02/05 08:12:48;;;;;;;;;;;0.10;76.80;;;;;;5027934;28;84576;-46
2022/02/05 08:15:17;;;;;;;;;;;0.10;76.90;;;;;;5030270;28;82834;-43
2022/02/05 08:17:43;;;;;;;;;;;0.10;76.90;;;;;;5027782;28;84393;-44
2022/02/05 08:20:08;;;;;;;;;;;0.10;76.90;;;;;;5028089;28;82062;-44
2022/02/05 08:22:34;;;;;;;;;;;0.10;76.90;;;;;;5027675;28;83356;-44
2022/02/05 08:24:59;;;;;;;;;;;0.10;76.80;;;;;;5027711;28;84422;-44
2022/02/05 08:27:26;;;;;;;;;;;0.10;76.80;;;;;;5027787;28;81910;-43
2022/02/05 08:29:57;;;;;;;;;;;0.10;76.90;;;;;;5027822;28;83846;-45
2022/02/05 08:32:25;;;;;;;;;;;0.10;77.00;;;;;;5028161;28;83694;-44
2022/02/05 08:34:51;;;;;;;;;;;0.00;77.00;;;;;;5027711;28;81967;-44
2022/02/05 08:37:17;;;;;;;;;;;0.10;77.10;;;;;;5030063;28;83207;-43
2022/02/05 08:39:43;;;;;;;;;;;0.10;77.00;;;;;;5027228;28;83073;-43
2022/02/05 08:42:08;;;;;;;;;;;0.00;77.00;;;;;;5027804;28;85103;-43
2022/02/05 08:44:34;;;;;;;;;;;0.10;77.20;;;;;;5026958;28;83904;-44
2022/02/05 08:47:00;;;;;;;;;;;0.00;77.20;;;;;;5027276;28;82819;-43
2022/02/05 08:49:28;;;;;;;;;;;0.00;77.30;;;;;;5027617;28;82738;-48
2022/02/05 08:51:59;;;;;;;;;;;0.10;77.20;;;;;;5027301;28;84414;-43
2022/02/05 08:54:25;;;;;;;;;;;0.00;77.40;;;;;;5027455;28;81894;-44
2022/02/05 08:56:53;;;;;;;;;;;0.00;77.40;;;;;;5030467;28;84170;-43
2022/02/05 08:59:19;;;;;;;;;;;0.00;77.40;;;;;;5027447;28;81814;-43
2022/02/05 09:01:57;;;;;;;;;;;0.10;77.40;;;;;;5027460;28;83143;-44
2022/02/05 09:06:49;;;;;;;;;;;-0.10;77.70;;;;;;5027458;28;82083;-46
2022/02/05 09:09:46;;;;;;;;;;;-0.10;77.90;;;;;;5027240;28;83959;-45
2022/02/05 09:14:39;;;;;;;;;;;-0.10;78.00;;;;;;5026450;28;81864;-43
2022/02/05 09:17:05;;;;;;;;;;;-0.10;78.00;;;;;;5026955;28;83823;-43
2022/02/05 09:19:33;;;;;;;;;;;-0.10;78.00;;;;;;5029500;28;84622;-46
2022/02/05 09:21:59;;;;;;;;;;;0.00;78.00;;;;;;5027331;28;83756;-43
2022/02/05 09:24:25;;;;;;;;;;;0.00;77.70;;;;;;5026767;28;84611;-43
2022/02/05 09:26:57;;;;;;;;;;;0.00;77.80;;;;;;5026728;28;82814;-44
2022/02/05 09:29:23;;;;;;;;;;;-0.10;78.00;;;;;;5026302;28;84344;-44
2022/02/05 09:31:49;;;;;;;;;;;-0.10;78.10;;;;;;5026728;28;84332;-46
2022/02/05 09:34:16;;;;;;;;;;;0.00;78.00;;;;;;5027143;28;81861;-43
2022/02/05 09:36:42;;;;;;;;;;;0.00;78.00;;;;;;5026850;28;84372;-43
2022/02/05 09:39:09;;;;;;;;;;;0.00;78.00;;;;;;5026743;28;84720;-46
2022/02/05 09:41:35;;;;;;;;;;;0.00;78.00;;;;;;5029344;28;82114;-46
2022/02/05 09:44:00;;;;;;;;;;;0.00;78.00;;;;;;5025522;28;84668;-45
2022/02/05 09:46:26;;;;;;;;;;;0.00;77.90;;;;;;5027432;28;81400;-46
2022/02/05 09:48:52;;;;;;;;;;;0.00;78.00;;;;;;5026553;28;82964;-44
2022/02/05 09:51:19;;;;;;;;;;;0.00;78.00;;;;;;5026521;28;84435;-43
2022/02/05 09:53:49;;;;;;;;;;;0.00;77.90;;;;;;5025862;28;83594;-43
2022/02/05 09:56:15;;;;;;;;;;;0.10;77.70;;;;;;5026478;28;84730;-44
2022/02/05 09:58:41;;;;;;;;;;;0.10;77.70;;;;;;5026335;28;84636;-44
2022/02/05 10:01:12;;;;;;;;;;;0.10;77.90;;;;;;5026443;28;82146;-43
2022/02/05 10:03:39;;;;;;;;;;;0.00;78.00;;;;;;5028946;28;83959;-45
2022/02/05 10:06:12;;;;;;;;;;;0.10;78.00;;;;;;5026354;28;81990;-45
2022/02/05 10:08:39;;;;;;;;;;;0.10;77.90;;;;;;5026548;28;84172;-43
2022/02/05 10:11:05;;;;;;;;;;;0.10;78.10;;;;;;5026625;28;83544;-43
2022/02/05 10:13:31;;;;;;;;;;;0.10;78.30;;;;;;5026343;28;82139;-43
2022/02/05 10:15:57;;;;;;;;;;;0.10;78.50;;;;;;5026216;28;83995;-46
2022/02/05 10:18:27;;;;;;;;;;;0.10;78.50;;;;;;5025376;28;85502;-43
2022/02/05 10:20:54;;;;;;;;;;;0.10;78.50;;;;;;5026478;28;82029;-45
2022/02/05 10:23:19;;;;;;;;;;;0.10;78.50;;;;;;5026219;28;84127;-45
2022/02/05 10:25:49;;;;;;;;;;;0.10;78.30;;;;;;5029249;28;84213;-43
2022/02/05 10:28:15;;;;;;;;;;;0.10;78.30;;;;;;5029651;28;83659;-44
2022/02/05 10:30:44;;;;;;;;;;;0.10;78.20;;;;;;5029676;28;84543;-43
2022/02/05 10:33:16;;;;;;;;;;;0.20;78.10;;;;;;5029686;28;81994;-45
2022/02/05 10:35:44;;;;;;;;;;;0.10;78.20;;;;;;5030354;28;83014;-45
2022/02/05 10:43:13;;;;;;;;;;;0.20;78.20;;;;;;5027004;28;82829;-45
2022/02/05 10:45:41;;;;;;;;;;;0.20;78.40;;;;;;5029223;28;84507;-45
2022/02/05 10:48:08;;;;;;;;;;;0.20;78.30;;;;;;5032173;28;82040;-43
2022/02/05 10:50:34;;;;;;;;;;;0.20;78.20;;;;;;5029125;28;84328;-44
2022/02/05 10:53:12;;;;;;;;;;;0.30;78.30;;;;;;5028898;28;81957;-45
2022/02/05 10:55:52;;;;;;;;;;;0.20;78.30;;;;;;5029499;28;83947;-47
2022/02/05 10:58:29;;;;;;;;;;;0.30;78.30;;;;;;5029387;28;83162;-44
2022/02/05 11:06:35;;;;;;;;;;;0.30;78.50;;;;;;5027546;28;82282;-45
2022/02/05 11:09:00;;;;;;;;;;;0.30;78.70;;;;;;5031254;28;83082;-44
2022/02/05 11:17:03;;;;;;;;;;;0.40;79.10;;;;;;5029374;28;81919;-44
2022/02/05 11:19:29;;;;;;;;;;;0.40;79.10;;;;;;5028773;28;84748;-44
2022/02/05 11:21:56;;;;;;;;;;;0.40;79.10;;;;;;5028797;28;82008;-43
2022/02/05 11:24:22;;;;;;;;;;;0.50;79.00;;;;;;5028560;28;83832;-43
2022/02/05 11:26:50;;;;;;;;;;;0.50;79.40;;;;;;5029211;28;82247;-44
2022/02/05 11:29:26;;;;;;;;;;;0.50;79.20;;;;;;5028731;28;82125;-44
2022/02/05 11:31:55;;;;;;;;;;;0.50;79.20;;;;;;5031275;28;83260;-44
2022/02/05 11:34:27;;;;;;;;;;;0.60;79.50;;;;;;5028063;28;83012;-43
2022/02/05 11:37:04;;;;;;;;;;;0.60;79.20;;;;;;5028067;28;84790;-45
2022/02/05 11:39:45;;;;;;;;;;;0.60;79.60;;;;;;5028502;28;84712;-44
2022/02/05 11:42:29;;;;;;;;;;;0.60;79.30;;;;;;5028659;28;82128;-44
2022/02/05 11:44:55;;;;;;;;;;;0.60;79.30;;;;;;5028481;28;84024;-46
2022/02/05 11:47:21;;;;;;;;;;;0.60;79.30;;;;;;5028033;28;84600;-44
2022/02/05 11:49:52;;;;;;;;;;;0.60;79.30;;;;;;5028456;28;81944;-44
2022/02/05 11:52:36;;;;;;;;;;;0.60;79.60;;;;;;5029287;28;81551;-45
2022/02/05 11:55:07;;;;;;;;;;;0.70;79.60;;;;;;5030904;28;83544;-44
2022/02/05 11:57:42;;;;;;;;;;;0.70;79.60;;;;;;5028377;28;83737;-43
2022/02/05 12:00:10;;;;;;;;;;;0.70;79.80;;;;;;5027410;28;85288;-43
2022/02/05 12:02:40;;;;;;;;;;;0.80;79.60;;;;;;5028244;28;81834;-43
2022/02/05 12:05:18;;;;;;;;;;;0.80;79.90;;;;;;5028206;28;83626;-41
2022/02/05 12:08:02;;;;;;;;;;;0.80;80.60;;;;;;5027948;28;84363;-41
2022/02/05 12:10:36;;;;;;;;;;;1.00;82.20;;;;;;5028000;28;82091;-47
2022/02/05 12:13:15;;;;;;;;;;;1.10;82.40;;;;;;5028176;28;83944;-40
2022/02/05 12:15:42;;;;;;;;;;;1.30;82.90;;;;;;5027885;28;84449;-43
2022/02/05 12:18:17;;;;;;;;;;;1.30;82.90;;;;;;5031147;28;81385;-42
2022/02/05 12:25:59;;;;;;;;;;;1.30;81.00;;;;;;5027407;28;82959;-43
2022/02/05 12:28:33;;;;;;;;;;;1.30;81.30;;;;;;5027683;28;84559;-42
2022/02/05 12:31:00;;;;;;;;;;;1.40;81.10;;;;;;5027706;28;82160;-45
2022/02/05 12:33:44;;;;;;;;;;;1.40;81.30;;;;;;5027462;28;84366;-45
2022/02/05 12:36:09;;;;;;;;;;;1.30;81.30;;;;;;5027574;28;84345;-43
2022/02/05 12:38:38;;;;;;;;;;;1.30;81.30;;;;;;5027752;28;81820;-43
2022/02/05 12:41:05;;;;;;;;;;;1.40;81.20;;;;;;5030294;28;81703;-45
2022/02/05 12:43:47;;;;;;;;;;;1.40;81.10;;;;;;5027671;28;81384;-44
2022/02/05 12:46:13;;;;;;;;;;;1.40;80.90;;;;;;5027883;28;82904;-45
2022/02/05 12:48:40;;;;;;;;;;;1.40;80.90;;;;;;5026397;28;84266;-44
2022/02/05 12:51:05;;;;;;;;;;;1.40;80.90;;;;;;5026858;28;82786;-43
2022/02/05 12:53:36;;;;;;;;;;;1.40;81.00;;;;;;5027501;28;84990;-43
2022/02/05 12:56:12;;;;;;;;;;;1.40;81.10;;;;;;5027165;28;84337;-43
2022/02/05 12:58:52;;;;;;;;;;;1.40;81.10;;;;;;5027281;28;82080;-47
2022/02/05 13:01:18;;;;;;;;;;;1.40;81.20;;;;;;5027426;28;83842;-43
2022/02/05 13:03:44;;;;;;;;;;;1.40;81.30;;;;;;5029659;28;83654;-43
2022/02/05 13:06:19;;;;;;;;;;;1.40;81.30;;;;;;5027301;28;83172;-43
2022/02/05 13:08:48;;;;;;;;;;;1.40;81.50;;;;;;5027385;28;83929;-43
2022/02/05 13:11:18;;;;;;;;;;;1.40;81.80;;;;;;5027094;28;81843;-45
2022/02/05 13:13:52;;;;;;;;;;;1.50;81.40;;;;;;5027464;28;83922;-45
2022/02/05 13:16:18;;;;;;;;;;;1.40;81.50;;;;;;5026257;28;85767;-45
2022/02/05 13:18:54;;;;;;;;;;;1.50;81.50;;;;;;5026979;28;82067;-43
2022/02/05 13:26:59;;;;;;;;;;;1.50;81.80;;;;;;5025851;28;81813;-43
2022/02/05 13:29:44;;;;;;;;;;;1.50;81.40;;;;;;5026866;28;84516;-43
2022/02/05 13:35:01;;;;;;;;;;;1.60;81.50;;;;;;5025804;28;81689;-43
2022/02/05 13:37:30;;;;;;;;;;;1.60;81.50;;;;;;5026897;28;82668;-43
2022/02/05 13:40:01;;;;;;;;;;;1.60;81.50;;;;;;5026859;28;82091;-44
2022/02/05 13:42:29;;;;;;;;;;;1.60;81.50;;;;;;5025695;28;83796;-44
2022/02/05 13:45:02;;;;;;;;;;;1.60;81.20;;;;;;5026700;28;83428;-45
2022/02/05 13:47:35;;;;;;;;;;;1.70;81.20;;;;;;5029648;28;81893;-45
2022/02/05 13:50:10;;;;;;;;;;;1.70;81.30;;;;;;5026578;28;83945;-45
2022/02/05 13:52:37;;;;;;;;;;;1.70;81.60;;;;;;5026520;28;82102;-44
2022/02/05 13:55:11;;;;;;;;;;;1.70;81.50;;;;;;5026651;28;83744;-45
2022/02/05 13:57:36;;;;;;;;;;;1.70;81.50;;;;;;5026381;28;84252;-44
2022/02/05 14:00:03;;;;;;;;;;;1.70;81.30;;;;;;5028379;28;81279;-46
2022/02/05 14:02:35;;;;;;;;;;;1.70;81.40;;;;;;5030129;28;84192;-43
2022/02/05 14:05:12;;;;;;;;;;;1.70;81.10;;;;;;5029911;28;84350;-43
2022/02/05 14:07:42;;;;;;;;;;;1.80;80.20;;;;;;5029477;28;83025;-42
2022/02/05 14:10:12;;;;;;;;;;;1.70;81.10;;;;;;5032649;28;84215;-41
2022/02/05 14:12:46;;;;;;;;;;;1.80;81.20;;;;;;5029907;28;81998;-43
2022/02/05 14:15:12;;;;;;;;;;;1.90;81.20;;;;;;5030102;28;82997;-41
2022/02/05 14:17:38;;;;;;;;;;;1.80;81.30;;;;;;5029650;28;84333;-42
2022/02/05 14:20:11;;;;;;;;;;;1.80;81.50;;;;;;5029580;28;82112;-42
2022/02/05 14:22:39;;;;;;;;;;;1.80;81.40;;;;;;5029889;28;84904;-42
2022/02/05 14:25:29;;;;;;;;;;;1.90;81.00;;;;;;5030109;28;83073;-43
2022/02/05 14:28:25;;;;;;;;;;;1.90;80.70;;;;;;5029715;28;81866;-43
2022/02/05 14:36:50;;;;;;;;;;;2.00;80.10;;;;;;5030012;28;82568;-43
2022/02/05 14:42:10;;;;;;;;;;;2.00;79.60;;;;;;5029885;28;81899;-42
2022/02/05 14:44:35;;;;;;;;;;;2.00;79.40;;;;;;5028906;28;83890;-42
2022/02/05 14:47:02;;;;;;;;;;;2.00;79.50;;;;;;5029222;28;84843;-41
2022/02/05 14:49:27;;;;;;;;;;;2.00;79.30;;;;;;5029306;28;82033;-41
2022/02/05 14:51:53;;;;;;;;;;;2.10;79.30;;;;;;5029990;28;83698;-42
2022/02/05 14:54:19;;;;;;;;;;;2.10;79.10;;;;;;5029217;28;83490;-42
2022/02/05 14:56:44;;;;;;;;;;;2.10;79.20;;;;;;5031968;28;82079;-41
2022/02/05 14:59:10;;;;;;;;;;;2.10;79.20;;;;;;5028423;28;84683;-42
2022/02/05 15:01:36;;;;;;;;;;;2.10;79.20;;;;;;5029170;28;82022;-41
2022/02/05 15:04:02;;;;;;;;;;;2.10;79.10;;;;;;5027879;28;85476;-42
2022/02/05 15:06:30;;;;;;;;;;;2.10;79.20;;;;;;5029185;28;83687;-42
2022/02/05 15:08:57;;;;;;;;;;;2.10;79.10;;;;;;5029252;28;82069;-41
2022/02/05 15:11:24;;;;;;;;;;;2.10;79.20;;;;;;5028415;28;83635;-43
2022/02/05 15:13:49;;;;;;;;;;;2.10;79.40;;;;;;5029100;28;83074;-43
2022/02/05 15:16:17;;;;;;;;;;;2.10;79.70;;;;;;5029455;28;81339;-41
2022/02/05 15:18:51;;;;;;;;;;;2.10;79.90;;;;;;5031616;28;83075;-42
2022/02/05 15:21:17;;;;;;;;;;;2.20;80.00;;;;;;5029049;28;81994;-42
2022/02/05 15:23:42;;;;;;;;;;;2.20;80.00;;;;;;5028388;28;84054;-41
2022/02/05 15:26:08;;;;;;;;;;;2.10;80.00;;;;;;5028574;28;83633;-40
2022/02/05 15:28:33;;;;;;;;;;;2.20;80.00;;;;;;5028851;28;82127;-42
2022/02/05 15:31:02;;;;;;;;;;;2.20;79.90;;;;;;5028622;28;82849;-41
2022/02/05 15:33:27;;;;;;;;;;;2.20;80.00;;;;;;5028480;28;84669;-42
2022/02/05 15:35:56;;;;;;;;;;;2.20;80.20;;;;;;5028827;28;82130;-42
2022/02/05 15:38:32;;;;;;;;;;;2.20;80.30;;;;;;5031423;28;83200;-41
2022/02/05 15:43:48;;;;;;;;;;;2.20;80.10;;;;;;5028123;28;81975;-42
2022/02/05 15:46:13;;;;;;;;;;;2.20;80.10;;;;;;5028443;28;84474;-43
2022/02/05 15:48:40;;;;;;;;;;;2.30;79.90;;;;;;5027927;28;83067;-41
2022/02/05 15:51:06;;;;;;;;;;;2.20;79.80;;;;;;5028485;28;84755;-42
2022/02/05 15:53:36;;;;;;;;;;;2.30;79.70;;;;;;5028237;28;84565;-42
2022/02/05 15:56:03;;;;;;;;;;;2.30;79.80;;;;;;5028515;28;82133;-43
2022/02/05 15:58:36;;;;;;;;;;;2.30;79.90;;;;;;5028249;28;83926;-42
2022/02/05 16:01:02;;;;;;;;;;;2.30;80.00;;;;;;5030952;28;84463;-41
2022/02/05 16:03:28;;;;;;;;;;;2.30;80.10;;;;;;5028288;28;84201;-42
2022/02/05 16:05:54;;;;;;;;;;;2.30;80.00;;;;;;5028619;28;82995;-42
2022/02/05 16:08:19;;;;;;;;;;;2.30;80.10;;;;;;5028005;28;81778;-41
2022/02/05 16:10:45;;;;;;;;;;;2.30;80.20;;;;;;5027897;28;83894;-41
2022/02/05 16:13:10;;;;;;;;;;;2.30;80.50;;;;;;5027227;28;84727;-43
2022/02/05 16:15:36;;;;;;;;;;;2.30;80.60;;;;;;5028198;28;82246;-42
2022/02/05 16:18:01;;;;;;;;;;;2.40;80.50;;;;;;5028156;28;83750;-42
2022/02/05 16:20:27;;;;;;;;;;;2.40;80.50;;;;;;5027905;28;83856;-42
2022/02/05 16:22:52;;;;;;;;;;;2.40;80.50;;;;;;5029809;28;82144;-42
2022/02/05 16:25:21;;;;;;;;;;;2.40;80.50;;;;;;5027003;28;84557;-42
2022/02/05 16:27:50;;;;;;;;;;;2.40;80.50;;;;;;5026651;28;82041;-41
2022/02/05 16:30:16;;;;;;;;;;;2.40;80.40;;;;;;5028229;28;83835;-41
2022/02/05 16:32:42;;;;;;;;;;;2.40;80.50;;;;;;5027618;28;84550;-43
2022/02/05 16:35:11;;;;;;;;;;;2.40;80.60;;;;;;5027639;28;81940;-41
2022/02/05 16:37:38;;;;;;;;;;;2.50;80.90;;;;;;5027023;28;83935;-43
2022/02/05 16:40:06;;;;;;;;;;;2.50;81.00;;;;;;5026004;28;86621;-42
2022/02/05 16:42:33;;;;;;;;;;;2.50;81.00;;;;;;5027439;28;82187;-41
2022/02/05 16:44:59;;;;;;;;;;;2.50;81.00;;;;;;5030279;28;83887;-43
2022/02/05 16:47:24;;;;;;;;;;;2.50;80.90;;;;;;5027835;28;81834;-42
2022/02/05 16:49:50;;;;;;;;;;;2.50;80.80;;;;;;5027473;28;83757;-42
2022/02/05 16:52:18;;;;;;;;;;;2.50;80.80;;;;;;5027322;28;84448;-42
2022/02/05 16:54:44;;;;;;;;;;;2.50;80.70;;;;;;5027913;28;81357;-41
2022/02/05 16:57:10;;;;;;;;;;;2.50;80.70;;;;;;5027349;28;83351;-41
2022/02/05 16:59:35;;;;;;;;;;;2.60;80.50;;;;;;5027034;28;84967;-44
2022/02/05 17:02:01;;;;;;;;;;;2.60;80.40;;;;;;5026710;28;82927;-43
2022/02/05 17:04:26;;;;;;;;;;;2.60;80.50;;;;;;5027337;28;84672;-40
2022/02/05 17:06:52;;;;;;;;;;;2.60;80.80;;;;;;5029675;28;85465;-42
2022/02/05 17:09:17;;;;;;;;;;;2.60;80.90;;;;;;5027232;28;83720;-43
2022/02/05 17:11:43;;;;;;;;;;;2.60;80.90;;;;;;5026894;28;84451;-42
2022/02/05 17:14:09;;;;;;;;;;;2.60;80.80;;;;;;5027187;28;82047;-43
2022/02/05 17:16:34;;;;;;;;;;;2.60;80.70;;;;;;5027213;28;82747;-45
2022/02/05 17:19:00;;;;;;;;;;;2.60;80.80;;;;;;5027518;28;83605;-42
2022/02/05 17:21:26;;;;;;;;;;;2.60;80.70;;;;;;5027164;28;82171;-40
2022/02/05 17:23:52;;;;;;;;;;;2.60;80.60;;;;;;5026940;28;83108;-42
2022/02/05 17:26:20;;;;;;;;;;;2.70;80.70;;;;;;5025942;28;85588;-42
2022/02/05 17:28:47;;;;;;;;;;;2.70;81.40;;;;;;5029507;28;82092;-41
2022/02/05 17:31:13;;;;;;;;;;;2.60;80.50;;;;;;5026766;28;84459;-41
2022/02/05 17:33:39;;;;;;;;;;;2.70;80.60;;;;;;5026838;28;81833;-41
2022/02/05 17:36:09;;;;;;;;;;;2.70;80.60;;;;;;5026357;28;83685;-45